Latest Coastal Weather Observations for Darwin Harbour

IDD60701

Issued at 9:51 am CST Tuesday 24 October 2017 (issued every 10 minutes, with the page automatically refreshed every 10 minutes)

About coastal observations | Map of coastal stations | Coastal observations for NT | Marine services | Other Formats
Station Details ID: 014072 Name: DARWIN NTC AWS Lat: -12.47 Lon: 130.85 Height: 0.0 m
Data from the previous 72 hours. | See also: Recent months for locations in Northern Territory
Date/Time
CST
Temp
°C
Wind Pressure Rain since
9am
mm
Weather Cloud Vis
km
Sea
Height
m
Swell
Dir  Spd
kts
Gust
kts
hPa Trend Height
m
Period
s
Dir
24/09:30am - SE 3 4 1013.2 - - - - - - - - -
24/09:00am - E 4 5 1013.3 - - - - - - - - -
24/08:30am - ENE 3 5 1013.3 - - - - - - - - -
24/08:00am - ENE 2 5 1012.9 - - - - - - - - -
24/07:30am - NE 3 6 1012.3 - - - - - - - - -
24/07:00am - NE 3 5 1012.0 - - - - - - - - -
24/06:30am - NE 3 5 1011.7 - - - - - - - - -
24/06:00am - ENE 3 5 1011.6 - - - - - - - - -
24/05:30am - NE 2 4 1011.2 - - - - - - - - -
24/05:00am - NE 2 4 1010.9 - - - - - - - - -
24/04:30am - NNE 2 4 1010.5 - - - - - - - - -
24/04:00am - NE 2 5 1010.4 - - - - - - - - -
24/03:30am - ENE 3 5 1010.5 - - - - - - - - -
24/03:00am - NNE 2 5 1010.1 - - - - - - - - -
24/02:30am - NNE 2 4 1010.1 - - - - - - - - -
24/02:00am - NW 3 6 1010.1 - - - - - - - - -
24/01:30am - WNW 4 7 1010.1 - - - - - - - - -
24/01:00am - WNW 4 7 1010.3 - - - - - - - - -
24/12:30am - WNW 7 11 1010.3 - - - - - - - - -
24/12:00am - WNW 5 7 1010.9 - - - - - - - - -
 
Date/Time
CST
Temp
°C
Wind Pressure Rain since
9am
mm
Weather Cloud Vis
km
Sea
Height
m
Swell
Dir  Spd
kts
Gust
kts
hPa Trend Height
m
Period
s
Dir
23/11:30pm - NW 7 11 1011.2 - - - - - - - - -
23/11:00pm - NW 6 11 1011.2 - - - - - - - - -
23/10:30pm - WNW 7 10 1011.2 - - - - - - - - -
23/10:00pm - WNW 8 13 1011.1 - - - - - - - - -
23/09:30pm - WNW 8 13 1010.8 - - - - - - - - -
23/09:00pm - WNW 7 12 1010.2 - - - - - - - - -
23/08:30pm - NW 7 11 1009.8 - - - - - - - - -
23/08:00pm - WNW 8 13 1009.5 - - - - - - - - -
23/07:30pm - WNW 9 13 1009.1 - - - - - - - - -
23/07:00pm - WNW 10 15 1008.8 - - - - - - - - -
23/06:30pm - WNW 8 15 1008.7 - - - - - - - - -
23/06:00pm - NW 7 12 1008.3 - - - - - - - - -
23/05:30pm - NW 9 15 1007.9 - - - - - - - - -
23/05:00pm - WNW 10 16 1007.7 - - - - - - - - -
23/04:30pm - NW 8 14 1007.7 - - - - - - - - -
23/04:00pm - NW 6 13 1007.9 - - - - - - - - -
23/03:30pm - NNW 8 15 1008.1 - - - - - - - - -
23/03:00pm - N 8 13 1008.1 - - - - - - - - -
23/02:30pm - NNW 7 15 1008.0 - - - - - - - - -
23/02:00pm - NW 6 11 1008.3 - - - - - - - - -
23/01:30pm - WNW 9 14 1008.9 - - - - - - - - -
23/01:00pm - WNW 9 14 1009.6 - - - - - - - - -
23/12:30pm - WNW 10 15 1010.1 - - - - - - - - -
23/12:00pm - WNW 8 14 1010.6 - - - - - - - - -
23/11:30am - WNW 7 12 1010.8 - - - - - - - - -
23/11:00am - W 4 5 1011.1 - - - - - - - - -
23/10:30am - WSW 3 5 1011.4 - - - - - - - - -
23/10:00am - SW 3 4 1011.5 - - - - - - - - -
23/09:30am - SW 1 3 1011.6 - - - - - - - - -
23/09:00am - SSE 2 4 1011.7 - - - - - - - - -
23/08:30am - SE 7 9 1011.5 - - - - - - - - -
23/08:00am - SE 8 11 1011.4 - - - - - - - - -
23/07:30am - ESE 6 8 1011.3 - - - - - - - - -
23/07:00am - E 4 6 1010.9 - - - - - - - - -
23/06:30am - E 5 9 1010.5 - - - - - - - - -
23/06:00am - ESE 8 9 1010.3 - - - - - - - - -
23/05:30am - ESE 7 9 1010.1 - - - - - - - - -
23/05:00am - SE 7 9 1009.7 - - - - - - - - -
23/04:30am - ESE 6 8 1009.5 - - - - - - - - -
23/04:00am - SE 3 5 1009.3 - - - - - - - - -
23/03:30am - WSW 2 3 1009.3 - - - - - - - - -
23/03:00am - WSW 3 4 1009.3 - - - - - - - - -
23/02:30am - W 5 6 1009.2 - - - - - - - - -
23/02:00am - W 5 7 1009.2 - - - - - - - - -
23/01:30am - W 7 9 1009.4 - - - - - - - - -
23/01:00am - W 7 10 1009.6 - - - - - - - - -
23/12:30am - W 8 11 1009.7 - - - - - - - - -
23/12:00am - WNW 9 13 1009.8 - - - - - - - - -
 
Date/Time
CST
Temp
°C
Wind Pressure Rain since
9am
mm
Weather Cloud Vis
km
Sea
Height
m
Swell
Dir  Spd
kts
Gust
kts
hPa Trend Height
m
Period
s
Dir
22/11:30pm - WNW 8 12 1010.1 - - - - - - - - -
22/11:00pm - NW 5 10 1010.3 - - - - - - - - -
22/10:30pm - NW 5 9 1010.5 - - - - - - - - -
22/10:00pm - WNW 6 11 1010.3 - - - - - - - - -
22/09:30pm - WNW 7 11 1010.0 - - - - - - - - -
22/09:00pm - NW 6 11 1009.6 - - - - - - - - -
22/08:30pm - NW 6 11 1009.4 - - - - - - - - -
22/08:00pm - WNW 6 9 1009.1 - - - - - - - - -
22/07:30pm - WNW 4 8 1009.1 - - - - - - - - -
22/07:00pm - WNW 6 9 1008.6 - - - - - - - - -
22/06:30pm - NW 6 9 1008.4 - - - - - - - - -
22/06:00pm - NW 6 10 1007.9 - - - - - - - - -
22/05:30pm - WNW 6 12 1007.7 - - - - - - - - -
22/05:00pm - NW 6 11 1007.4 - - - - - - - - -
22/04:30pm - WNW 8 13 1007.2 - - - - - - - - -
22/04:00pm - WNW 9 13 1007.1 - - - - - - - - -
22/03:30pm - WNW 7 9 1007.3 - - - - - - - - -
22/03:00pm - WNW 8 11 1007.8 - - - - - - - - -
22/02:30pm - WNW 8 11 1008.1 - - - - - - - - -
22/02:00pm - WNW 7 10 1008.6 - - - - - - - - -
22/01:30pm - NW 5 10 1009.0 - - - - - - - - -
22/01:00pm - WNW 7 11 1009.7 - - - - - - - - -
22/12:30pm - WSW 2 5 1010.3 - - - - - - - - -
22/12:00pm - NNE 2 6 1010.9 - - - - - - - - -
22/11:30am - ENE 3 6 1010.9 - - - - - - - - -
22/11:00am - NE 5 9 1011.4 - - - - - - - - -
22/10:30am - NE 6 12 1011.5 - - - - - - - - -
22/10:00am - NE 8 16 1011.6 - - - - - - - - -
22/09:30am - NNE 8 15 1011.5 - - - - - - - - -
22/09:00am - NE 5 12 1011.4 - - - - - - - - -
22/08:30am - E 7 10 1011.1 - - - - - - - - -
22/08:00am - ENE 3 6 1011.0 - - - - - - - - -
22/07:30am - NE 3 6 1010.6 - - - - - - - - -
22/07:00am - ENE 4 8 1010.5 - - - - - - - - -
22/06:30am - ENE 4 7 1010.2 - - - - - - - - -
22/06:00am - E 4 6 1009.7 - - - - - - - - -
22/05:30am - NW 1 1 1009.5 - - - - - - - - -
22/05:00am - WSW 3 6 1009.1 - - - - - - - - -
22/04:30am - WSW 3 5 1008.7 - - - - - - - - -
22/04:00am - W 3 5 1008.6 - - - - - - - - -
22/03:30am - WSW 3 5 1008.5 - - - - - - - - -
22/03:00am - WSW 3 5 1008.7 - - - - - - - - -
22/02:30am - W 4 5 1008.7 - - - - - - - - -
22/02:00am - W 4 7 1008.9 - - - - - - - - -
22/01:30am - W 5 7 1009.1 - - - - - - - - -
22/01:00am - W 5 7 1009.2 - - - - - - - - -
22/12:30am - W 4 6 1009.6 - - - - - - - - -
22/12:00am - W 5 8 1010.0 - - - - - - - - -
 
Date/Time
CST
Temp
°C
Wind Pressure Rain since
9am
mm
Weather Cloud Vis
km
Sea
Height
m
Swell
Dir  Spd
kts
Gust
kts
hPa Trend Height
m
Period
s
Dir
21/11:30pm - W 6 9 1009.9 - - - - - - - - -
21/11:00pm - W 7 9 1010.0 - - - - - - - - -
21/10:30pm - W 8 11 1010.1 - - - - - - - - -
21/10:00pm - W 7 10 1010.3 - - - - - - - - -
21/09:30pm - W 7 10 1010.2 - - - - - - - - -
21/09:00pm - W 8 10 1009.8 - - - - - - - - -
21/08:30pm - W 9 11 1009.7 - - - - - - - - -
21/08:00pm - W 8 10 1009.5 - - - - - - - - -
21/07:30pm - W 8 11 1009.3 - - - - - - - - -
21/07:00pm - W 9 12 1009.1 - - - - - - - - -
21/06:30pm - WNW 8 11 1008.7 - - - - - - - - -
21/06:00pm - W 8 11 1008.5 - - - - - - - - -
21/05:30pm - W 6 9 1008.3 - - - - - - - - -
21/05:00pm - WNW 5 10 1008.4 - - - - - - - - -
21/04:30pm - WNW 6 12 1008.6 - - - - - - - - -
21/04:00pm - WNW 7 13 1008.7 - - - - - - - - -
21/03:30pm - WNW 7 12 1008.9 - - - - - - - - -
21/03:00pm - NNW 10 16 1009.1 - - - - - - - - -
21/02:30pm - N 9 15 1009.5 - - - - - - - - -
21/02:00pm - NNW 7 13 1009.9 - - - - - - - - -
21/01:30pm - WNW 7 11 1010.5 - - - - - - - - -
21/01:00pm - WNW 8 11 1011.0 - - - - - - - - -
21/12:30pm - WNW 8 11 1011.6 - - - - - - - - -
21/12:00pm - WNW 8 11 1012.0 - - - - - - - - -
21/11:30am - W 4 7 1012.3 - - - - - - - - -
21/11:00am - WSW 4 5 1012.5 - - - - - - - - -
21/10:30am - SSE 3 4 1012.7 - - - - - - - - -
21/10:00am - SSE 3 5 1012.9 - - - - - - - - -

Other Formats:

Comma delimited format used in spreadsheet applications
http://www.bom.gov.au/fwo/IDD60701/IDD60701.95122.axf

JavaScript Object Notation format (JSON) in row-major order
http://www.bom.gov.au/fwo/IDD60701/IDD60701.95122.json